createdAt,value
2023-07-20T00:05:00.988Z,49.01
2023-07-20T00:07:29.925Z,48.90
2023-07-20T00:09:58.149Z,48.89
2023-07-20T00:12:25.805Z,49.26
2023-07-20T00:14:54.641Z,49.18
2023-07-20T00:17:22.563Z,49.11
2023-07-20T00:19:50.173Z,50.04
2023-07-20T00:22:17.772Z,50.45
2023-07-20T00:24:46.691Z,50.42
2023-07-20T00:27:14.342Z,50.54
2023-07-20T00:29:42.024Z,51.54
2023-07-20T00:32:09.746Z,51.00
2023-07-20T00:34:37.281Z,50.24
2023-07-20T00:37:05.146Z,50.06
2023-07-20T00:39:32.697Z,50.19
2023-07-20T00:42:01.711Z,50.07
2023-07-20T00:44:29.399Z,50.17
2023-07-20T00:46:58.562Z,50.42
2023-07-20T00:49:26.193Z,50.26
2023-07-20T00:51:53.861Z,50.22
2023-07-20T00:54:21.506Z,49.99
2023-07-20T00:56:49.412Z,49.89
2023-07-20T00:59:18.339Z,50.07
2023-07-20T01:01:45.999Z,50.29
2023-07-20T01:04:14.321Z,50.51
2023-07-20T01:06:50.221Z,51.41
2023-07-20T01:09:21.770Z,51.16
2023-07-20T01:11:56.706Z,51.06
2023-07-20T01:14:26.333Z,50.89
2023-07-20T01:16:54.384Z,50.63
2023-07-20T01:19:22.230Z,50.83
2023-07-20T01:21:55.881Z,51.00
2023-07-20T01:24:56.683Z,50.96
2023-07-20T01:28:15.113Z,50.68
2023-07-20T01:30:55.753Z,51.04
2023-07-20T01:33:27.314Z,50.94
2023-07-20T01:35:58.533Z,51.03
2023-07-20T01:38:26.611Z,51.02
2023-07-20T01:40:54.762Z,50.69
2023-07-20T01:43:22.491Z,50.58
2023-07-20T01:45:50.162Z,50.64
2023-07-20T01:48:17.852Z,50.74
2023-07-20T01:50:47.489Z,50.69
2023-07-20T01:53:15.156Z,51.20
2023-07-20T01:55:42.794Z,51.12
2023-07-20T01:58:10.508Z,51.02
2023-07-20T02:00:39.521Z,51.87
2023-07-20T02:03:07.256Z,52.67
2023-07-20T02:05:34.813Z,52.57
2023-07-20T02:08:03.744Z,51.98
2023-07-20T02:10:31.377Z,51.39
2023-07-20T02:12:58.935Z,51.44
2023-07-20T02:15:26.687Z,50.50
2023-07-20T02:17:54.300Z,49.60
2023-07-20T02:20:22.138Z,49.27
2023-07-20T02:22:49.853Z,49.76
2023-07-20T02:25:18.813Z,49.08
2023-07-20T02:27:46.562Z,49.12
2023-07-20T02:30:14.649Z,48.96
2023-07-20T02:32:46.522Z,49.13
2023-07-20T02:35:14.268Z,49.60
2023-07-20T02:37:41.845Z,50.45
2023-07-20T02:40:10.808Z,50.95
2023-07-20T02:42:39.704Z,51.33
2023-07-20T02:45:08.396Z,52.00
2023-07-20T02:47:35.972Z,51.80
2023-07-20T02:50:03.689Z,52.20
2023-07-20T02:52:31.245Z,51.88
2023-07-20T02:54:58.810Z,52.28
2023-07-20T02:57:26.437Z,52.37
2023-07-20T02:59:55.900Z,52.24
2023-07-20T03:02:23.582Z,52.14
2023-07-20T03:04:51.170Z,51.86
2023-07-20T03:07:21.157Z,51.96
2023-07-20T03:09:49.070Z,51.83
2023-07-20T03:12:16.637Z,52.51
2023-07-20T03:14:44.195Z,52.30
2023-07-20T03:17:13.230Z,52.04
2023-07-20T03:19:41.258Z,51.83
2023-07-20T03:22:08.801Z,52.25
2023-07-20T03:24:36.530Z,52.41
2023-07-20T03:27:04.160Z,52.77
2023-07-20T03:29:34.003Z,52.61
2023-07-20T03:32:01.588Z,52.27
2023-07-20T03:34:30.562Z,52.41
2023-07-20T03:36:58.153Z,52.78
2023-07-20T03:39:25.767Z,52.47
2023-07-20T03:41:53.380Z,52.68
2023-07-20T03:44:21.097Z,51.80
2023-07-20T03:46:48.763Z,51.70
2023-07-20T03:49:16.415Z,52.31
2023-07-20T03:51:45.498Z,52.42
2023-07-20T03:54:13.101Z,51.65
2023-07-20T03:56:40.695Z,51.18
2023-07-20T03:59:08.239Z,50.99
2023-07-20T04:01:37.990Z,51.75
2023-07-20T04:04:08.368Z,52.28
2023-07-20T04:06:36.266Z,53.34
2023-07-20T04:09:05.837Z,53.63
2023-07-20T04:11:33.592Z,53.54
2023-07-20T04:14:01.197Z,53.55
2023-07-20T04:16:28.882Z,52.96
2023-07-20T04:18:57.121Z,52.67
2023-07-20T04:21:25.428Z,53.11
2023-07-20T04:23:52.982Z,52.85
2023-07-20T04:26:22.265Z,53.47
2023-07-20T04:28:51.603Z,54.33
2023-07-20T04:31:19.338Z,55.13
2023-07-20T04:33:47.096Z,55.03
2023-07-20T04:36:17.292Z,54.27
2023-07-20T04:38:44.841Z,54.49
2023-07-20T04:41:13.253Z,54.38
2023-07-20T04:43:44.985Z,54.33
2023-07-20T04:46:12.925Z,54.06
2023-07-20T04:48:41.728Z,54.10
2023-07-20T04:51:09.407Z,53.82
2023-07-20T04:53:37.018Z,53.05
2023-07-20T04:56:04.952Z,52.93
2023-07-20T04:58:32.525Z,52.31
2023-07-20T05:01:01.490Z,51.68
2023-07-20T05:03:29.190Z,52.35
2023-07-20T05:05:56.850Z,52.87
2023-07-20T05:08:24.465Z,53.10
2023-07-20T05:10:52.099Z,53.67
2023-07-20T05:13:19.713Z,53.58
2023-07-20T05:15:47.366Z,53.23
2023-07-20T05:18:20.783Z,53.05
2023-07-20T05:20:48.538Z,53.24
2023-07-20T05:23:16.403Z,53.23
2023-07-20T05:25:44.094Z,52.69
2023-07-20T05:28:11.822Z,52.19
2023-07-20T05:30:39.465Z,52.49
2023-07-20T05:33:07.058Z,52.66
2023-07-20T05:35:36.029Z,52.29
2023-07-20T05:38:05.306Z,51.91
2023-07-20T05:40:32.888Z,51.52
2023-07-20T05:43:01.680Z,51.29
2023-07-20T05:45:29.252Z,50.94
2023-07-20T05:47:56.861Z,50.89
2023-07-20T05:50:24.541Z,50.77
2023-07-20T05:52:54.941Z,50.98
2023-07-20T05:55:22.718Z,49.87
2023-07-20T05:57:50.715Z,50.09
2023-07-20T06:00:20.487Z,49.68
2023-07-20T06:02:49.022Z,48.65
2023-07-20T06:05:16.809Z,48.21
2023-07-20T06:07:44.392Z,47.37
2023-07-20T06:10:13.274Z,46.41
2023-07-20T06:12:40.842Z,46.24
2023-07-20T06:15:26.495Z,47.02
2023-07-20T06:17:54.122Z,46.82
2023-07-20T06:20:21.676Z,46.36
2023-07-20T06:22:49.259Z,46.06
2023-07-20T06:25:18.208Z,45.20
2023-07-20T06:27:46.154Z,44.91
2023-07-20T06:30:13.969Z,45.27
2023-07-20T06:32:41.578Z,46.18
2023-07-20T06:35:09.833Z,46.32
2023-07-20T06:37:37.397Z,46.46
2023-07-20T06:45:09.869Z,45.36
2023-07-20T06:47:39.659Z,44.25
2023-07-20T06:50:08.404Z,44.67
2023-07-20T06:52:36.079Z,44.37
2023-07-20T06:55:05.901Z,44.05
2023-07-20T06:57:34.154Z,43.39
2023-07-20T07:00:03.519Z,43.61
2023-07-20T07:02:31.117Z,43.80
2023-07-20T07:05:00.966Z,43.51
2023-07-20T07:07:46.265Z,43.11
2023-07-20T07:10:14.235Z,43.88
2023-07-20T07:12:42.018Z,43.29
2023-07-20T07:15:12.696Z,42.82
2023-07-20T07:17:40.499Z,43.02
2023-07-20T07:20:11.394Z,43.46
2023-07-20T07:22:47.933Z,42.04
2023-07-20T07:25:19.972Z,40.63
2023-07-20T07:27:50.878Z,41.56
2023-07-20T07:30:20.202Z,42.64
2023-07-20T07:32:48.089Z,40.95
2023-07-20T07:35:15.735Z,40.25
2023-07-20T07:37:57.199Z,40.27
2023-07-20T07:40:30.865Z,39.86
2023-07-20T07:42:58.468Z,40.09
2023-07-20T07:45:27.387Z,39.69
2023-07-20T07:47:55.012Z,40.04
2023-07-20T07:50:22.694Z,38.32
2023-07-20T07:52:50.258Z,37.70
2023-07-20T07:55:18.948Z,37.28
2023-07-20T07:57:48.446Z,39.70
2023-07-20T08:00:19.912Z,39.05
2023-07-20T08:02:49.963Z,38.66
2023-07-20T08:05:17.876Z,38.32
2023-07-20T08:07:46.332Z,37.56
2023-07-20T08:10:14.196Z,37.50
2023-07-20T08:12:41.780Z,37.35
2023-07-20T08:15:09.943Z,38.28
2023-07-20T08:17:37.676Z,39.16
2023-07-20T08:20:08.058Z,37.95
2023-07-20T08:22:35.634Z,37.73
2023-07-20T08:25:03.164Z,37.40
2023-07-20T08:27:30.734Z,37.54
2023-07-20T08:30:00.522Z,37.08
2023-07-20T08:32:29.288Z,36.90
2023-07-20T08:34:56.867Z,36.69
2023-07-20T08:37:25.833Z,36.13
2023-07-20T08:39:53.394Z,34.92
2023-07-20T08:42:20.938Z,35.47
2023-07-20T08:44:50.599Z,34.86
2023-07-20T08:47:18.709Z,34.49
2023-07-20T08:49:50.433Z,34.73
2023-07-20T08:52:18.552Z,35.23
2023-07-20T08:54:47.624Z,34.69
2023-07-20T08:57:16.415Z,34.64
2023-07-20T08:59:45.521Z,34.35
2023-07-20T09:02:19.815Z,34.89
2023-07-20T09:04:47.871Z,34.38
2023-07-20T09:07:16.563Z,34.21
2023-07-20T09:09:44.233Z,34.46
2023-07-20T09:12:17.058Z,34.92
2023-07-20T09:14:45.200Z,34.84
2023-07-20T09:17:17.466Z,35.78
2023-07-20T09:19:49.503Z,35.61
2023-07-20T09:22:18.358Z,34.80
2023-07-20T09:24:46.216Z,35.15
2023-07-20T09:27:13.876Z,35.24
2023-07-20T09:29:51.260Z,34.98
2023-07-20T09:34:52.850Z,35.74
2023-07-20T09:37:23.228Z,35.13
2023-07-20T09:44:58.629Z,34.86
2023-07-20T09:47:28.798Z,34.25
2023-07-20T09:55:05.109Z,34.85
2023-07-20T09:57:34.746Z,35.14
2023-07-20T10:02:44.241Z,34.94
2023-07-20T10:05:14.022Z,34.26
2023-07-20T10:07:45.870Z,34.80
2023-07-20T10:10:13.740Z,34.26
2023-07-20T10:12:44.210Z,34.56
2023-07-20T10:15:20.031Z,34.24
2023-07-20T10:17:59.726Z,35.57
2023-07-20T10:20:28.399Z,35.48
2023-07-20T10:22:58.954Z,35.05
2023-07-20T10:25:26.713Z,35.04
2023-07-20T10:27:54.352Z,34.45
2023-07-20T10:30:23.658Z,33.35
2023-07-20T10:32:53.460Z,33.57
2023-07-20T10:35:21.285Z,34.12
2023-07-20T10:37:51.217Z,34.81
2023-07-20T10:40:31.461Z,35.29
2023-07-20T10:43:04.460Z,35.13
2023-07-20T10:45:54.797Z,35.29
2023-07-20T10:48:24.562Z,34.97
2023-07-20T10:51:13.109Z,34.56
2023-07-20T10:53:40.906Z,33.63
2023-07-20T10:56:10.158Z,33.30
2023-07-20T10:58:37.741Z,33.08
2023-07-20T11:01:07.618Z,32.85
2023-07-20T11:03:38.347Z,33.03
2023-07-20T11:06:32.654Z,33.25
2023-07-20T11:09:09.707Z,33.72
2023-07-20T11:11:38.751Z,33.42
2023-07-20T11:14:08.391Z,34.90
2023-07-20T11:16:40.700Z,34.92
2023-07-20T11:20:22.901Z,34.44
2023-07-20T11:22:08.772Z,34.41
2023-07-20T11:24:36.334Z,33.60
2023-07-20T11:27:04.291Z,34.91
2023-07-20T11:29:33.916Z,33.90
2023-07-20T11:32:05.682Z,35.58
2023-07-20T11:34:35.003Z,34.61
2023-07-20T11:39:34.243Z,32.40
2023-07-20T11:42:01.829Z,32.66
2023-07-20T11:44:31.131Z,33.19
2023-07-20T11:47:05.674Z,33.56
2023-07-20T11:49:37.000Z,33.99
2023-07-20T11:52:05.930Z,31.09
2023-07-20T11:54:34.217Z,30.43
2023-07-20T11:57:03.109Z,31.46
2023-07-20T11:59:32.324Z,30.91
2023-07-20T12:02:00.900Z,30.59
2023-07-20T12:04:30.087Z,29.76
2023-07-20T12:06:57.782Z,29.58
2023-07-20T12:09:32.206Z,30.49
2023-07-20T12:12:12.267Z,29.76
2023-07-20T12:14:39.908Z,30.39
2023-07-20T12:17:10.200Z,31.34
2023-07-20T12:19:41.580Z,29.31
2023-07-20T12:22:09.898Z,29.23
2023-07-20T12:24:37.510Z,29.88
2023-07-20T12:27:06.177Z,29.36
2023-07-20T12:29:37.148Z,29.59
2023-07-20T12:32:05.301Z,28.77
2023-07-20T12:34:33.185Z,27.56
2023-07-20T12:37:05.371Z,29.74
2023-07-20T12:39:33.806Z,29.05
2023-07-20T12:42:01.379Z,28.43
2023-07-20T12:44:29.654Z,28.33
2023-07-20T12:46:57.507Z,27.79
2023-07-20T12:49:25.100Z,27.10
2023-07-20T12:51:52.668Z,27.85
2023-07-20T12:54:21.672Z,27.01
2023-07-20T12:59:19.778Z,27.23
2023-07-20T13:01:47.978Z,26.39
2023-07-20T13:04:16.159Z,26.52
2023-07-20T13:06:43.813Z,25.09
2023-07-20T13:09:11.383Z,25.93
2023-07-20T13:11:40.306Z,24.46
2023-07-20T13:14:07.877Z,24.29
2023-07-20T13:16:36.752Z,24.95
2023-07-20T13:19:04.479Z,25.29
2023-07-20T13:21:32.048Z,24.11
2023-07-20T13:23:59.626Z,23.86
2023-07-20T13:26:27.383Z,24.37
2023-07-20T13:28:56.388Z,24.97
2023-07-20T13:31:24.684Z,25.14
2023-07-20T13:33:57.162Z,25.59
2023-07-20T13:36:30.133Z,26.32
2023-07-20T13:38:59.542Z,25.31
2023-07-20T13:41:28.537Z,26.64
2023-07-20T13:43:58.860Z,27.01
2023-07-20T13:48:58.508Z,24.97
2023-07-20T13:51:28.323Z,25.05
2023-07-20T13:53:56.277Z,24.51
2023-07-20T13:56:24.032Z,24.47
2023-07-20T13:58:51.777Z,24.81
2023-07-20T14:03:53.940Z,24.96
2023-07-20T14:06:24.534Z,25.51
2023-07-20T14:08:54.090Z,24.98
2023-07-20T14:13:52.495Z,26.33
2023-07-20T14:16:21.808Z,26.10
2023-07-20T14:18:50.289Z,25.86
2023-07-20T14:21:18.939Z,25.38
2023-07-20T14:23:48.114Z,24.93
2023-07-20T14:26:16.064Z,25.21
2023-07-20T14:28:43.799Z,24.04
2023-07-20T14:31:11.380Z,23.65
2023-07-20T14:33:41.629Z,23.47
2023-07-20T14:36:09.474Z,23.62
2023-07-20T14:38:37.398Z,25.16
2023-07-20T14:41:07.815Z,25.04
2023-07-20T14:43:35.867Z,25.18
2023-07-20T14:46:03.466Z,25.42
2023-07-20T14:48:31.116Z,25.05
2023-07-20T14:53:36.128Z,24.52
2023-07-20T14:56:04.761Z,25.14
2023-07-20T14:58:35.309Z,25.58
2023-07-20T15:01:04.322Z,26.65
2023-07-20T15:03:32.889Z,26.50
2023-07-20T15:06:03.562Z,25.44
2023-07-20T15:08:31.992Z,25.15
2023-07-20T15:10:59.562Z,25.13
2023-07-20T15:13:27.126Z,24.70
2023-07-20T15:15:54.755Z,24.72
2023-07-20T15:18:33.782Z,24.28
2023-07-20T15:21:10.780Z,24.47
2023-07-20T15:23:38.384Z,25.32
2023-07-20T15:26:06.048Z,23.76
2023-07-20T15:28:33.645Z,24.04
2023-07-20T15:31:02.939Z,23.70
2023-07-20T15:33:30.811Z,23.11
2023-07-20T15:35:58.634Z,23.53
2023-07-20T15:38:27.721Z,23.63
2023-07-20T15:40:57.720Z,23.91
2023-07-20T15:43:25.349Z,24.52
2023-07-20T15:46:06.229Z,24.41
2023-07-20T15:48:34.323Z,24.50
2023-07-20T15:51:02.895Z,24.84
2023-07-20T15:53:31.984Z,24.55
2023-07-20T15:55:59.592Z,24.23
2023-07-20T15:58:27.173Z,24.19
2023-07-20T16:00:57.960Z,24.07
2023-07-20T16:03:26.783Z,24.21
2023-07-20T16:05:54.761Z,24.15
2023-07-20T16:08:22.848Z,24.53
2023-07-20T16:10:53.480Z,23.45
2023-07-20T16:13:21.075Z,23.79
2023-07-20T16:15:54.201Z,23.43
2023-07-20T16:18:23.248Z,23.92
2023-07-20T16:20:50.886Z,24.43
2023-07-20T16:23:18.463Z,24.45
2023-07-20T16:25:47.526Z,24.42
2023-07-20T16:28:16.609Z,24.83
2023-07-20T16:30:44.234Z,24.46
2023-07-20T16:33:12.008Z,24.68
2023-07-20T16:38:14.100Z,25.21
2023-07-20T16:43:12.618Z,25.56
2023-07-20T16:45:41.563Z,25.74
2023-07-20T16:48:10.413Z,25.69
2023-07-20T16:50:38.072Z,25.92
2023-07-20T16:53:05.719Z,26.03
2023-07-20T16:55:33.309Z,26.18
2023-07-20T16:58:01.262Z,26.16
2023-07-20T17:00:28.814Z,25.92
2023-07-20T17:02:57.787Z,25.86
2023-07-20T17:05:25.388Z,25.88
2023-07-20T17:07:56.643Z,25.94
2023-07-20T17:10:25.022Z,25.90
2023-07-20T17:12:53.237Z,26.11
2023-07-20T17:15:20.908Z,26.26
2023-07-20T17:17:51.553Z,26.90
2023-07-20T17:22:52.255Z,27.11
2023-07-20T17:30:21.402Z,26.80
2023-07-20T17:32:50.327Z,26.78
2023-07-20T17:35:18.002Z,26.25
2023-07-20T17:45:23.007Z,25.82
2023-07-20T17:47:50.687Z,25.99
2023-07-20T17:50:18.909Z,25.67
2023-07-20T17:52:47.817Z,25.82
2023-07-20T17:55:15.440Z,26.60
2023-07-20T17:57:42.975Z,27.39
2023-07-20T18:02:43.422Z,28.38
2023-07-20T18:05:11.693Z,28.67
2023-07-20T18:07:41.565Z,28.51
2023-07-20T18:10:11.285Z,29.11
2023-07-20T18:12:38.989Z,29.34
2023-07-20T18:15:07.935Z,30.14
2023-07-20T18:17:36.627Z,30.43
2023-07-20T18:20:05.144Z,30.59
2023-07-20T18:22:32.968Z,30.98
2023-07-20T18:25:00.648Z,30.95
2023-07-20T18:27:29.914Z,31.53
2023-07-20T18:29:57.855Z,30.85
2023-07-20T18:32:26.219Z,32.32
2023-07-20T18:34:54.656Z,33.44
2023-07-20T18:37:22.344Z,33.89
2023-07-20T18:39:49.908Z,34.16
2023-07-20T18:42:18.461Z,34.87
2023-07-20T18:44:47.487Z,35.56
2023-07-20T18:47:15.078Z,35.89
2023-07-20T18:49:42.816Z,37.29
2023-07-20T18:52:10.388Z,39.02
2023-07-20T18:54:38.065Z,40.93
2023-07-20T18:57:06.637Z,42.71
2023-07-20T18:59:35.896Z,43.30
2023-07-20T19:02:05.315Z,43.92
2023-07-20T19:04:32.925Z,42.18
2023-07-20T19:07:00.550Z,41.70
2023-07-20T19:09:28.386Z,41.47
2023-07-20T19:11:56.066Z,41.25
2023-07-20T19:14:23.726Z,41.63
2023-07-20T19:16:51.506Z,42.08
2023-07-20T19:19:21.659Z,43.06
2023-07-20T19:21:49.505Z,43.32
2023-07-20T19:24:17.076Z,43.23
2023-07-20T19:26:44.651Z,42.65
2023-07-20T19:29:12.677Z,42.26
2023-07-20T19:31:40.314Z,42.44
2023-07-20T19:34:08.040Z,41.57
2023-07-20T19:36:37.037Z,41.29
2023-07-20T19:39:04.910Z,41.01
2023-07-20T19:41:32.463Z,41.14
2023-07-20T19:44:00.065Z,41.44
2023-07-20T19:46:28.099Z,41.44
2023-07-20T19:48:56.945Z,41.93
2023-07-20T19:51:24.654Z,42.27
2023-07-20T19:56:24.268Z,43.37
2023-07-20T19:58:52.151Z,43.40
2023-07-20T20:03:52.943Z,43.80
2023-07-20T20:06:20.623Z,44.27
2023-07-20T20:08:48.232Z,45.10
2023-07-20T20:11:19.378Z,45.52
2023-07-20T20:13:46.980Z,45.89
2023-07-20T20:16:14.634Z,45.82
2023-07-20T20:18:44.408Z,45.99
2023-07-20T20:21:12.699Z,46.22
2023-07-20T20:23:41.578Z,45.50
2023-07-20T20:26:09.311Z,45.20
2023-07-20T20:28:38.453Z,45.83
2023-07-20T20:31:07.476Z,45.52
2023-07-20T20:33:36.748Z,46.00
2023-07-20T20:36:07.069Z,45.35
2023-07-20T20:38:35.221Z,44.83
2023-07-20T20:41:03.457Z,45.72
2023-07-20T20:43:32.904Z,45.81
2023-07-20T20:46:06.502Z,46.50
2023-07-20T20:48:38.552Z,47.13
2023-07-20T20:51:06.641Z,47.28
2023-07-20T20:53:34.221Z,46.79
2023-07-20T20:56:02.048Z,45.86
2023-07-20T20:58:29.889Z,45.99
2023-07-20T21:01:01.746Z,46.17
2023-07-20T21:03:31.042Z,45.57
2023-07-20T21:05:59.199Z,46.69
2023-07-20T21:08:28.242Z,45.72
2023-07-20T21:10:59.499Z,46.38
2023-07-20T21:13:27.296Z,45.99
2023-07-20T21:15:55.385Z,45.76
2023-07-20T21:18:23.149Z,45.84
2023-07-20T21:20:52.327Z,46.64
2023-07-20T21:23:20.994Z,46.75
2023-07-20T21:25:49.269Z,46.66
2023-07-20T21:28:17.893Z,46.74
2023-07-20T21:30:47.046Z,46.25
2023-07-20T21:33:15.241Z,46.23
2023-07-20T21:35:44.577Z,46.97
2023-07-20T21:38:13.508Z,49.48
2023-07-20T21:40:41.618Z,49.27
2023-07-20T21:43:09.198Z,49.00
2023-07-20T21:45:36.748Z,49.39
2023-07-20T21:48:04.562Z,49.50
2023-07-20T21:50:32.135Z,48.90
2023-07-20T21:53:00.493Z,48.44
2023-07-20T21:55:29.892Z,48.64
2023-07-20T21:57:57.448Z,48.99
2023-07-20T22:00:25.800Z,49.91
2023-07-20T22:02:53.464Z,50.00
2023-07-20T22:05:22.485Z,49.64
2023-07-20T22:07:50.433Z,49.74
2023-07-20T22:10:18.719Z,49.26
2023-07-20T22:12:48.858Z,49.49
2023-07-20T22:15:16.713Z,49.66
2023-07-20T22:17:44.342Z,49.02
2023-07-20T22:20:14.505Z,48.31
2023-07-20T22:22:42.233Z,48.81
2023-07-20T22:25:10.114Z,48.61
2023-07-20T22:27:38.352Z,48.68
2023-07-20T22:30:11.173Z,49.55
2023-07-20T22:32:39.399Z,49.10
2023-07-20T22:35:08.320Z,49.20
2023-07-20T22:37:36.101Z,49.25
2023-07-20T22:40:06.181Z,49.23
2023-07-20T22:42:34.420Z,48.95
2023-07-20T22:45:05.751Z,48.39
2023-07-20T22:47:35.180Z,47.53
2023-07-20T22:50:03.023Z,47.84
2023-07-20T22:52:31.142Z,48.23
2023-07-20T22:54:58.713Z,48.05
2023-07-20T22:57:26.529Z,47.32
2023-07-20T22:59:54.792Z,47.59
2023-07-20T23:02:22.806Z,47.82
2023-07-20T23:04:54.511Z,47.88
2023-07-20T23:07:22.771Z,48.35
2023-07-20T23:09:51.623Z,49.05
2023-07-20T23:12:19.645Z,49.69
2023-07-20T23:14:47.252Z,49.93
2023-07-20T23:17:14.922Z,49.96
2023-07-20T23:19:42.689Z,50.11
2023-07-20T23:22:11.817Z,50.36
2023-07-20T23:24:39.386Z,50.62
2023-07-20T23:27:07.074Z,50.57
2023-07-20T23:29:34.635Z,49.94
2023-07-20T23:32:04.256Z,50.32
2023-07-20T23:34:35.661Z,50.25
2023-07-20T23:37:03.143Z,50.09
2023-07-20T23:39:33.123Z,50.04
2023-07-20T23:42:02.751Z,49.69
2023-07-20T23:44:30.413Z,49.27
2023-07-20T23:46:58.156Z,49.19
2023-07-20T23:49:27.021Z,49.12
2023-07-20T23:51:54.677Z,48.53
2023-07-20T23:54:23.647Z,48.57
2023-07-20T23:56:52.563Z,48.47
2023-07-20T23:59:20.116Z,48.59
